createdAt,value
2017-10-14T00:12:28.080Z,13.685194
2017-10-14T00:32:32.780Z,13.685194
2017-10-14T00:52:37.810Z,13.685194
2017-10-14T01:12:42.760Z,13.685194
2017-10-14T01:32:47.853Z,13.685194
2017-10-14T01:52:52.815Z,13.685194
2017-10-14T02:12:57.969Z,13.685194
2017-10-14T02:33:03.035Z,13.685194
2017-10-14T02:53:08.092Z,13.685194
2017-10-14T03:13:13.230Z,13.685194
2017-10-14T03:33:18.232Z,13.685194
2017-10-14T03:53:23.051Z,13.685194
2017-10-14T04:13:28.368Z,13.685194
2017-10-14T04:33:33.459Z,13.685194
2017-10-14T04:53:38.378Z,13.622181999999999
2017-10-14T05:33:49.082Z,13.622181999999999
2017-10-14T05:53:53.866Z,13.622181999999999
2017-10-14T06:13:58.416Z,13.559704
2017-10-14T06:34:03.767Z,13.622181999999999
2017-10-14T06:54:08.431Z,13.559704
2017-10-14T07:14:13.528Z,13.622181999999999
2017-10-14T07:34:18.765Z,13.622181999999999
2017-10-14T07:54:23.535Z,13.559704
2017-10-14T08:14:28.697Z,13.559704
2017-10-14T08:34:33.597Z,13.622181999999999
2017-10-14T08:54:38.677Z,13.622181999999999
2017-10-14T09:27:40.563Z,13.685194
2017-10-14T09:47:45.644Z,13.685194
2017-10-14T10:07:50.777Z,13.747671999999998
2017-10-14T10:27:55.757Z,13.747671999999998
2017-10-14T10:48:00.809Z,13.81015
2017-10-14T11:08:05.837Z,13.81015
2017-10-14T11:48:15.905Z,13.872627999999999
2017-10-14T12:08:21.318Z,13.872627999999999
2017-10-14T12:28:25.982Z,13.935105999999998
2017-10-14T12:48:31.281Z,13.935105999999998
2017-10-14T13:08:36.179Z,13.997584
2017-10-14T13:28:41.262Z,13.997584
2017-10-14T13:48:46.568Z,13.997584
2017-10-14T14:08:51.226Z,14.060061999999999
2017-10-14T14:28:57.275Z,14.060061999999999
2017-10-14T14:49:01.609Z,14.060061999999999
2017-10-14T15:09:06.235Z,14.060061999999999
2017-10-14T15:29:11.154Z,14.060061999999999
2017-10-14T15:49:19.232Z,14.060061999999999
2017-10-14T16:09:21.233Z,14.060061999999999
2017-10-14T16:29:26.272Z,14.060061999999999
2017-10-14T16:49:31.329Z,14.060061999999999
2017-10-14T17:29:41.423Z,14.060061999999999
2017-10-14T17:49:46.582Z,14.060061999999999
2017-10-14T18:09:51.577Z,13.997584
2017-10-14T18:29:57.198Z,14.060061999999999
2017-10-14T18:50:01.811Z,13.997584
2017-10-14T19:10:06.685Z,13.997584
2017-10-14T19:30:12.081Z,13.997584
2017-10-14T19:50:17.234Z,13.997584
2017-10-14T20:10:20.888Z,13.997584
2017-10-14T20:30:25.970Z,13.997584
2017-10-14T20:50:30.931Z,13.997584
2017-10-14T21:10:35.939Z,13.997584
2017-10-14T21:30:40.939Z,13.935105999999998
2017-10-14T21:50:46.108Z,13.935105999999998
2017-10-14T22:10:51.110Z,13.935105999999998
2017-10-14T22:30:56.060Z,13.935105999999998
2017-10-14T23:11:07.084Z,13.935105999999998
2017-10-14T23:31:11.357Z,13.935105999999998
2017-10-14T23:51:16.296Z,13.935105999999998
